Time;durP1;ratioP1;P1;durP2;ratioP2;P2;SDS_P1;SDS_P2;PMS_P1;PMS_P2;Temp;Humidity;BMP_temperature;BMP_pressure;BME280_temperature;BME280_humidity;BME280_pressure;Samples;Min_cycle;Max_cycle;Signal;HPM_P1;HPM_P2
2022/10/15 00:01:31;;;;;;;24.37;4.32;;;13.30;99.90;;;;;;4447642;32;20113;-64
2022/10/15 00:03:59;;;;;;;1.45;1.05;;;13.30;99.90;;;;;;4425205;32;20089;-66
2022/10/15 00:06:24;;;;;;;2.33;1.40;;;13.20;99.90;;;;;;4432533;32;20406;-67
2022/10/15 00:08:50;;;;;;;22.15;1.17;;;13.20;99.90;;;;;;4450335;32;20113;-66
2022/10/15 00:11:18;;;;;;;0.70;0.70;;;13.20;99.90;;;;;;4450104;32;20100;-63
2022/10/15 00:13:44;;;;;;;0.80;0.80;;;13.20;99.90;;;;;;4450022;32;20073;-63
2022/10/15 00:16:14;;;;;;;3.00;1.45;;;13.20;99.90;;;;;;4448038;32;20119;-64
2022/10/15 00:18:40;;;;;;;3.95;1.33;;;13.20;99.90;;;;;;4449156;32;20123;-64
2022/10/15 00:21:08;;;;;;;4.68;0.93;;;13.20;99.90;;;;;;4436839;32;20406;-65
2022/10/15 00:23:34;;;;;;;1.23;0.90;;;13.20;99.90;;;;;;4453541;32;20586;-64
2022/10/15 00:26:18;;;;;;;0.62;0.62;;;13.10;99.90;;;;;;4452164;32;20105;-65
2022/10/15 00:28:44;;;;;;;4.45;1.25;;;13.10;99.90;;;;;;4436784;32;20080;-64
2022/10/15 00:31:13;;;;;;;1.12;0.82;;;13.10;99.90;;;;;;4437463;32;20572;-64
2022/10/15 00:33:39;;;;;;;6.03;0.93;;;13.10;99.90;;;;;;4432483;32;20088;-68
2022/10/15 00:36:07;;;;;;;6.47;2.53;;;13.10;99.90;;;;;;4425961;32;20089;-68
2022/10/15 00:38:34;;;;;;;1.83;1.00;;;13.10;99.90;;;;;;4448472;32;20147;-65
2022/10/15 00:41:00;;;;;;;12.48;1.73;;;13.00;99.90;;;;;;4449867;32;20072;-65
2022/10/15 00:43:44;;;;;;;3.22;2.00;;;13.00;99.90;;;;;;4449175;32;20085;-66
2022/10/15 00:46:33;;;;;;;2.53;2.15;;;13.00;99.90;;;;;;4451660;32;20089;-66
2022/10/15 00:49:22;;;;;;;3.30;1.10;;;13.10;99.90;;;;;;4449899;32;20207;-66
2022/10/15 00:51:53;;;;;;;1.48;1.15;;;13.10;99.90;;;;;;4437588;32;20088;-67
2022/10/15 00:54:20;;;;;;;1.12;0.90;;;13.10;99.90;;;;;;4449757;32;20081;-65
2022/10/15 00:56:48;;;;;;;2.35;1.23;;;13.10;99.90;;;;;;4448380;32;20084;-65
2022/10/15 00:59:15;;;;;;;4.10;1.45;;;13.10;99.90;;;;;;4451271;32;20069;-64
2022/10/15 01:01:40;;;;;;;1.85;1.23;;;13.10;99.90;;;;;;4446257;32;20100;-63
2022/10/15 01:04:07;;;;;;;6.28;1.08;;;13.10;99.90;;;;;;4425045;32;20101;-68
2022/10/15 01:06:33;;;;;;;1.05;1.00;;;13.20;99.90;;;;;;4418023;32;20686;-66
2022/10/15 01:08:59;;;;;;;1.17;1.08;;;13.20;99.90;;;;;;4450585;32;20081;-65
2022/10/15 01:11:36;;;;;;;0.40;0.40;;;13.20;99.90;;;;;;4452697;32;20077;-65
2022/10/15 01:14:42;;;;;;;4.35;1.23;;;13.20;99.90;;;;;;4449242;32;20081;-66
2022/10/15 01:17:20;;;;;;;4.40;1.35;;;13.30;99.90;;;;;;4437917;32;20543;-64
2022/10/15 01:19:58;;;;;;;1.30;1.12;;;13.30;99.90;;;;;;4450598;32;20092;-64
2022/10/15 01:22:31;;;;;;;3.33;1.58;;;13.30;99.90;;;;;;4448976;32;20112;-66
2022/10/15 01:25:18;;;;;;;1.05;1.02;;;13.30;99.90;;;;;;4449258;32;20076;-63
2022/10/15 01:27:51;;;;;;;1.87;1.20;;;13.30;99.90;;;;;;4440758;32;20093;-65
2022/10/15 01:30:21;;;;;;;2.10;1.27;;;13.30;99.90;;;;;;4450877;32;20114;-65
2022/10/15 01:32:56;;;;;;;1.00;0.85;;;13.30;99.90;;;;;;4441521;32;20152;-67
2022/10/15 01:35:50;;;;;;;4.85;0.90;;;13.30;99.90;;;;;;4421555;32;20092;-65
2022/10/15 01:38:42;;;;;;;0.73;0.73;;;13.20;99.90;;;;;;4435802;32;20088;-66
2022/10/15 01:41:33;;;;;;;1.83;1.17;;;13.20;99.90;;;;;;4437748;32;20131;-65
2022/10/15 01:44:03;;;;;;;1.17;1.08;;;13.20;99.90;;;;;;4437552;32;20762;-65
2022/10/15 01:46:41;;;;;;;0.73;0.73;;;13.30;99.90;;;;;;4436088;32;20093;-66
2022/10/15 01:49:09;;;;;;;5.28;1.90;;;13.30;99.90;;;;;;4450604;32;20123;-64
2022/10/15 01:51:37;;;;;;;1.00;0.90;;;13.40;99.90;;;;;;4447615;32;20077;-64
2022/10/15 01:54:07;;;;;;;1.52;0.90;;;13.40;99.90;;;;;;4451697;32;20141;-64
2022/10/15 01:56:35;;;;;;;0.73;0.73;;;13.30;99.90;;;;;;4452578;32;20560;-65
2022/10/15 01:59:03;;;;;;;4.22;1.58;;;13.30;99.90;;;;;;4453710;32;20060;-64
2022/10/15 02:01:28;;;;;;;2.92;1.45;;;13.30;99.90;;;;;;4449992;32;20152;-64
2022/10/15 02:03:54;;;;;;;1.85;0.98;;;13.30;99.90;;;;;;4429453;32;20386;-66
2022/10/15 02:06:33;;;;;;;3.72;1.95;;;13.40;99.90;;;;;;4434894;32;20065;-65
2022/10/15 02:09:31;;;;;;;2.62;1.30;;;13.30;99.90;;;;;;4453452;32;20454;-65
2022/10/15 02:12:23;;;;;;;1.83;1.42;;;13.30;99.90;;;;;;4426708;32;20072;-64
2022/10/15 02:15:13;;;;;;;1.80;0.77;;;13.30;99.90;;;;;;4443132;32;20089;-64
2022/10/15 02:18:09;;;;;;;1.20;0.98;;;13.30;99.90;;;;;;4452141;32;20511;-65
2022/10/15 02:20:56;;;;;;;0.70;0.70;;;13.30;99.90;;;;;;4429144;32;20161;-65
2022/10/15 02:23:30;;;;;;;9.65;2.87;;;13.30;99.90;;;;;;4452020;32;20072;-65
2022/10/15 02:25:57;;;;;;;7.60;1.85;;;13.40;99.90;;;;;;4453818;32;20120;-65
2022/10/15 02:28:24;;;;;;;3.40;1.42;;;13.40;99.90;;;;;;4453161;32;20089;-64
2022/10/15 02:30:52;;;;;;;1.15;1.05;;;13.40;99.90;;;;;;4452757;32;20068;-65
2022/10/15 02:33:19;;;;;;;4.22;1.37;;;13.30;99.90;;;;;;4437860;32;20127;-66
2022/10/15 02:35:48;;;;;;;2.53;1.12;;;13.40;99.90;;;;;;4427959;32;20081;-66
2022/10/15 02:38:18;;;;;;;5.57;1.15;;;13.40;99.90;;;;;;4447871;32;20133;-65
2022/10/15 02:40:44;;;;;;;2.20;1.77;;;13.40;99.90;;;;;;4450208;32;20084;-64
2022/10/15 02:43:12;;;;;;;1.27;1.17;;;13.30;99.90;;;;;;4453031;32;20072;-64
2022/10/15 02:45:38;;;;;;;1.70;0.90;;;13.30;99.90;;;;;;4451768;32;20091;-65
2022/10/15 02:48:04;;;;;;;1.92;1.02;;;13.30;99.90;;;;;;4451864;32;20073;-66
2022/10/15 02:50:29;;;;;;;3.70;1.08;;;13.20;99.90;;;;;;4451104;32;20089;-64
2022/10/15 02:52:55;;;;;;;2.00;1.27;;;13.20;99.90;;;;;;4452493;32;20076;-64
2022/10/15 02:55:20;;;;;;;1.00;0.93;;;13.20;99.90;;;;;;4451794;32;20524;-65
2022/10/15 02:57:46;;;;;;;0.62;0.62;;;13.20;99.90;;;;;;4452739;32;20088;-64
2022/10/15 03:00:12;;;;;;;2.62;1.48;;;13.10;99.90;;;;;;4450326;32;20096;-64
2022/10/15 03:02:37;;;;;;;0.73;0.73;;;13.20;99.90;;;;;;4446775;32;21286;-64
2022/10/15 03:05:03;;;;;;;2.33;1.05;;;13.10;99.90;;;;;;4423969;32;20158;-65
2022/10/15 03:07:29;;;;;;;1.20;1.10;;;13.20;99.90;;;;;;4440036;32;20089;-64
2022/10/15 03:09:54;;;;;;;6.70;1.08;;;13.20;99.90;;;;;;4449245;32;20107;-64
2022/10/15 03:12:22;;;;;;;5.43;1.75;;;13.20;99.90;;;;;;4451557;32;20088;-64
2022/10/15 03:14:48;;;;;;;2.53;1.37;;;13.20;99.90;;;;;;4452041;32;20108;-64
2022/10/15 03:17:14;;;;;;;1.62;1.02;;;13.20;99.90;;;;;;4451445;32;20093;-64
2022/10/15 03:19:39;;;;;;;3.45;2.33;;;13.20;99.90;;;;;;4450734;32;20109;-64
2022/10/15 03:22:05;;;;;;;3.00;1.15;;;13.20;99.90;;;;;;4451192;32;20077;-64
2022/10/15 03:24:31;;;;;;;7.62;1.85;;;13.20;99.90;;;;;;4451881;32;20543;-64
2022/10/15 03:26:57;;;;;;;3.95;1.05;;;13.20;99.90;;;;;;4451483;32;20101;-64
2022/10/15 03:29:22;;;;;;;6.20;1.92;;;13.20;99.90;;;;;;4449908;32;20101;-64
2022/10/15 03:31:48;;;;;;;4.95;1.75;;;13.20;99.90;;;;;;4451343;32;20068;-64
2022/10/15 03:34:13;;;;;;;2.20;1.27;;;13.20;99.90;;;;;;4422416;32;20096;-67
2022/10/15 03:36:39;;;;;;;1.90;1.20;;;13.20;99.90;;;;;;4437466;32;20135;-64
2022/10/15 03:39:05;;;;;;;0.98;0.88;;;13.20;99.90;;;;;;4450087;32;20068;-64
2022/10/15 03:41:30;;;;;;;2.72;1.17;;;13.20;99.90;;;;;;4448628;32;20100;-64
2022/10/15 03:44:00;;;;;;;2.65;0.82;;;13.20;99.90;;;;;;4453510;32;20438;-63
2022/10/15 03:46:26;;;;;;;1.05;0.70;;;13.20;99.90;;;;;;4454114;32;20081;-64
2022/10/15 03:48:51;;;;;;;1.15;0.85;;;13.20;99.90;;;;;;4450071;32;20738;-64
2022/10/15 03:51:17;;;;;;;1.20;0.80;;;13.20;99.90;;;;;;4449547;32;20096;-64
2022/10/15 03:53:42;;;;;;;0.90;0.85;;;13.10;99.90;;;;;;4449550;32;20084;-64
2022/10/15 03:56:08;;;;;;;8.60;2.20;;;13.10;99.90;;;;;;4450637;32;20081;-64
2022/10/15 03:58:33;;;;;;;0.93;0.80;;;13.10;99.90;;;;;;4451737;32;20956;-64
2022/10/15 04:00:59;;;;;;;1.02;0.90;;;13.10;99.90;;;;;;4450656;32;20179;-64
2022/10/15 04:03:24;;;;;;;0.95;0.88;;;13.10;99.90;;;;;;4427395;32;20072;-67
2022/10/15 04:05:51;;;;;;;1.00;0.93;;;13.10;99.90;;;;;;4426560;32;20115;-67
2022/10/15 04:08:17;;;;;;;1.67;0.90;;;13.00;99.90;;;;;;4434551;32;20523;-64
2022/10/15 04:10:43;;;;;;;1.48;1.05;;;13.00;99.90;;;;;;4449591;32;20116;-64
2022/10/15 04:13:09;;;;;;;1.35;1.23;;;13.00;99.90;;;;;;4449108;32;20139;-64
2022/10/15 04:15:38;;;;;;;2.22;1.10;;;13.00;99.90;;;;;;4451188;32;20144;-63
2022/10/15 04:18:03;;;;;;;2.47;1.20;;;13.00;99.90;;;;;;4450959;32;20093;-64
2022/10/15 04:20:29;;;;;;;0.80;0.80;;;13.00;99.90;;;;;;4450703;32;20582;-64
2022/10/15 04:22:55;;;;;;;9.88;3.15;;;13.00;99.90;;;;;;4449179;32;20072;-64
2022/10/15 04:25:21;;;;;;;0.85;0.80;;;13.00;99.90;;;;;;4450606;32;20108;-64
2022/10/15 04:27:46;;;;;;;0.60;0.60;;;13.00;99.90;;;;;;4451673;32;20085;-65
2022/10/15 04:30:12;;;;;;;1.60;1.20;;;13.00;99.90;;;;;;4449155;32;20467;-65
2022/10/15 04:32:38;;;;;;;1.42;0.95;;;13.00;99.90;;;;;;4444771;32;20112;-67
2022/10/15 04:35:04;;;;;;;1.55;0.82;;;13.00;99.90;;;;;;4420986;32;20308;-66
2022/10/15 04:37:32;;;;;;;4.25;1.00;;;13.00;99.90;;;;;;4441080;32;20080;-65
2022/10/15 04:39:58;;;;;;;1.85;1.08;;;13.00;99.90;;;;;;4450665;32;20562;-64
2022/10/15 04:42:23;;;;;;;1.92;0.60;;;13.00;99.90;;;;;;4447997;32;20100;-64
2022/10/15 04:44:49;;;;;;;8.57;2.08;;;13.00;99.90;;;;;;4451444;32;20064;-64
2022/10/15 04:47:14;;;;;;;5.47;0.93;;;13.10;99.90;;;;;;4450806;32;20119;-65
2022/10/15 04:49:40;;;;;;;1.12;1.02;;;13.10;99.90;;;;;;4448918;32;20085;-65
2022/10/15 04:52:05;;;;;;;3.95;1.17;;;13.10;99.90;;;;;;4450830;32;20099;-65
2022/10/15 04:54:31;;;;;;;5.43;1.67;;;13.20;99.90;;;;;;4451923;32;20091;-64
2022/10/15 04:56:56;;;;;;;2.65;1.15;;;13.20;99.90;;;;;;4451659;32;20100;-65
2022/10/15 04:59:22;;;;;;;3.22;1.15;;;13.10;99.90;;;;;;4451488;32;20088;-63
2022/10/15 05:01:47;;;;;;;0.80;0.80;;;13.10;99.90;;;;;;4448921;32;20101;-65
2022/10/15 05:04:13;;;;;;;0.55;0.55;;;13.20;99.90;;;;;;4424243;32;20076;-67
2022/10/15 05:06:38;;;;;;;1.85;1.02;;;13.10;99.90;;;;;;4433350;32;20100;-64
2022/10/15 05:09:04;;;;;;;1.17;1.08;;;13.10;99.90;;;;;;4449384;32;20361;-64
2022/10/15 05:11:29;;;;;;;5.20;0.88;;;13.20;99.90;;;;;;4450641;32;20072;-64
2022/10/15 05:13:56;;;;;;;8.35;1.30;;;13.10;99.90;;;;;;4449530;32;20100;-64
2022/10/15 05:16:24;;;;;;;6.68;0.95;;;13.10;99.90;;;;;;4443667;32;20171;-64
2022/10/15 05:18:54;;;;;;;2.62;1.40;;;13.10;99.90;;;;;;4444873;32;20089;-64
2022/10/15 05:21:19;;;;;;;0.57;0.57;;;13.10;99.90;;;;;;4452129;32;20119;-64
2022/10/15 05:23:46;;;;;;;1.90;0.93;;;13.20;99.90;;;;;;4448612;32;20488;-67
2022/10/15 05:26:15;;;;;;;3.55;1.12;;;13.20;99.90;;;;;;4449879;32;20084;-65
2022/10/15 05:28:40;;;;;;;0.65;0.65;;;13.20;99.90;;;;;;4448145;32;20080;-64
2022/10/15 05:31:08;;;;;;;1.70;0.95;;;13.20;99.90;;;;;;4454258;32;20164;-64
2022/10/15 05:33:34;;;;;;;0.90;0.90;;;13.20;99.90;;;;;;4427472;32;20204;-66
2022/10/15 05:36:18;;;;;;;1.62;0.95;;;13.20;99.90;;;;;;4428448;32;20092;-67
2022/10/15 05:38:47;;;;;;;0.70;0.70;;;13.20;99.90;;;;;;4448482;32;20216;-64
2022/10/15 05:41:13;;;;;;;5.65;1.08;;;13.20;99.90;;;;;;4452777;32;20072;-63
2022/10/15 05:43:38;;;;;;;4.30;1.05;;;13.20;99.90;;;;;;4452503;32;20088;-64
2022/10/15 05:46:04;;;;;;;3.03;0.75;;;13.20;99.90;;;;;;4452375;32;20108;-63
2022/10/15 05:48:29;;;;;;;0.80;0.80;;;13.20;99.90;;;;;;4453487;32;20133;-64
2022/10/15 05:51:11;;;;;;;1.30;1.20;;;13.10;99.90;;;;;;4452936;32;20181;-65
2022/10/15 05:53:38;;;;;;;5.87;2.30;;;13.20;99.90;;;;;;4453710;32;20134;-64
2022/10/15 05:56:04;;;;;;;1.15;1.00;;;13.30;99.90;;;;;;4453391;32;20069;-65
2022/10/15 05:58:31;;;;;;;0.62;0.57;;;13.30;99.90;;;;;;4452782;32;20146;-64
2022/10/15 06:00:58;;;;;;;1.25;0.88;;;13.30;99.90;;;;;;4451739;32;20084;-63
2022/10/15 06:03:25;;;;;;;1.08;0.62;;;13.30;99.90;;;;;;4436728;32;20193;-66
2022/10/15 06:05:51;;;;;;;6.87;1.92;;;13.30;99.90;;;;;;4430637;32;20497;-64
2022/10/15 06:08:17;;;;;;;0.80;0.80;;;13.30;99.90;;;;;;4450969;32;20081;-65
2022/10/15 06:10:43;;;;;;;0.57;0.57;;;13.30;99.90;;;;;;4451135;32;20953;-64
2022/10/15 06:13:09;;;;;;;0.60;0.60;;;13.20;99.90;;;;;;4450930;32;20096;-63
2022/10/15 06:15:39;;;;;;;1.00;0.93;;;13.20;99.90;;;;;;4454168;32;20119;-63
2022/10/15 06:18:05;;;;;;;1.48;0.77;;;13.20;99.90;;;;;;4452122;32;20154;-64
2022/10/15 06:20:30;;;;;;;1.98;0.85;;;13.30;99.90;;;;;;4450708;32;20080;-65
2022/10/15 06:22:58;;;;;;;3.53;1.50;;;13.30;99.90;;;;;;4451314;32;20073;-63
2022/10/15 06:25:25;;;;;;;1.58;1.42;;;13.20;99.90;;;;;;4447220;32;20088;-64
2022/10/15 06:27:50;;;;;;;3.03;1.00;;;13.30;99.90;;;;;;4448159;32;20061;-66
2022/10/15 06:30:16;;;;;;;2.45;1.40;;;13.40;99.90;;;;;;4447346;32;20092;-63
2022/10/15 06:32:57;;;;;;;1.45;0.90;;;13.40;99.90;;;;;;4442892;32;20876;-64
2022/10/15 06:35:24;;;;;;;5.75;1.87;;;13.40;99.90;;;;;;4422328;32;20081;-65
2022/10/15 06:37:49;;;;;;;3.53;2.05;;;13.40;99.90;;;;;;4447250;32;20512;-65
2022/10/15 06:40:15;;;;;;;4.03;1.15;;;13.40;99.90;;;;;;4435633;32;20056;-64
2022/10/15 06:42:41;;;;;;;1.65;0.65;;;13.50;99.90;;;;;;4447272;32;20080;-63
2022/10/15 06:45:09;;;;;;;3.20;0.65;;;13.50;99.90;;;;;;4445401;32;20061;-64
2022/10/15 06:47:35;;;;;;;0.70;0.70;;;13.60;99.90;;;;;;4450963;32;20295;-64
2022/10/15 06:50:01;;;;;;;0.93;0.90;;;13.60;99.90;;;;;;4445427;32;20089;-65
2022/10/15 06:52:28;;;;;;;0.88;0.80;;;13.60;99.90;;;;;;4450834;32;20122;-64
2022/10/15 06:54:54;;;;;;;1.02;1.00;;;13.60;99.90;;;;;;4446570;32;20096;-66
2022/10/15 06:57:19;;;;;;;3.83;1.12;;;13.60;99.90;;;;;;4446379;32;20077;-66
2022/10/15 06:59:45;;;;;;;3.03;1.00;;;13.50;99.90;;;;;;4446645;32;20120;-64
2022/10/15 07:02:12;;;;;;;1.02;0.90;;;13.50;99.90;;;;;;4447356;32;20096;-64
2022/10/15 07:04:38;;;;;;;0.50;0.50;;;13.50;99.90;;;;;;4419187;32;20878;-64
2022/10/15 07:07:04;;;;;;;1.52;0.73;;;13.50;99.90;;;;;;4433672;32;20289;-63
2022/10/15 07:09:29;;;;;;;5.00;1.05;;;13.60;99.90;;;;;;4447383;32;20064;-66
2022/10/15 07:11:55;;;;;;;0.55;0.50;;;13.70;99.90;;;;;;4446604;32;20385;-65
2022/10/15 07:14:20;;;;;;;0.82;0.82;;;13.80;99.90;;;;;;4445399;32;20574;-64
2022/10/15 07:16:46;;;;;;;3.45;1.30;;;13.90;99.90;;;;;;4446194;32;20080;-67
2022/10/15 07:19:11;;;;;;;0.93;0.75;;;13.90;99.90;;;;;;4444340;32;20081;-65
2022/10/15 07:21:37;;;;;;;4.65;1.35;;;13.90;99.90;;;;;;4449611;32;20165;-65
2022/10/15 07:24:02;;;;;;;1.08;0.62;;;14.00;99.90;;;;;;4452865;32;20061;-65
2022/10/15 07:26:29;;;;;;;0.50;0.50;;;14.00;99.90;;;;;;4449531;32;20108;-65
2022/10/15 07:28:55;;;;;;;1.70;0.95;;;14.10;99.90;;;;;;4444043;32;20101;-64
2022/10/15 07:31:21;;;;;;;1.12;1.00;;;14.10;99.90;;;;;;4442020;32;20529;-63
2022/10/15 07:33:46;;;;;;;0.70;0.70;;;14.10;99.90;;;;;;4430977;32;20107;-66
2022/10/15 07:36:12;;;;;;;1.17;0.90;;;14.10;99.90;;;;;;4430864;32;20136;-63
2022/10/15 07:38:39;;;;;;;1.52;1.37;;;14.20;99.90;;;;;;4449042;32;20500;-63
2022/10/15 07:41:06;;;;;;;0.60;0.60;;;14.40;99.90;;;;;;4446756;32;20092;-65
2022/10/15 07:43:33;;;;;;;0.70;0.70;;;14.40;99.90;;;;;;4450112;32;20096;-64
2022/10/15 07:45:58;;;;;;;0.65;0.65;;;14.50;99.90;;;;;;4448545;32;20503;-68
2022/10/15 07:48:24;;;;;;;0.73;0.73;;;14.60;99.90;;;;;;4438802;32;20162;-65
2022/10/15 07:50:54;;;;;;;2.15;1.05;;;14.70;99.90;;;;;;4448424;32;20503;-67
2022/10/15 07:53:19;;;;;;;0.40;0.40;;;14.70;99.90;;;;;;4448821;32;20836;-65
2022/10/15 07:55:45;;;;;;;5.22;1.12;;;14.90;99.90;;;;;;4449847;32;20130;-64
2022/10/15 07:58:10;;;;;;;0.93;0.70;;;14.90;99.90;;;;;;4447384;32;20101;-66
2022/10/15 08:00:36;;;;;;;0.70;0.70;;;15.00;99.90;;;;;;4447523;32;20163;-64
2022/10/15 08:03:01;;;;;;;2.60;1.15;;;15.00;99.90;;;;;;4436161;32;20563;-66
2022/10/15 08:05:27;;;;;;;1.77;0.77;;;15.10;99.90;;;;;;4423780;32;20498;-65
2022/10/15 08:07:52;;;;;;;0.65;0.60;;;15.20;99.90;;;;;;4442786;32;20077;-65
2022/10/15 08:10:18;;;;;;;0.60;0.60;;;15.30;99.90;;;;;;4448140;32;20080;-65
2022/10/15 08:12:43;;;;;;;7.28;1.35;;;15.30;99.90;;;;;;4449910;32;20068;-65
2022/10/15 08:15:09;;;;;;;0.47;0.47;;;15.40;99.90;;;;;;4450697;32;20559;-66
2022/10/15 08:17:35;;;;;;;0.70;0.70;;;15.50;99.90;;;;;;4432366;32;20150;-65
2022/10/15 08:20:00;;;;;;;0.70;0.57;;;15.60;99.90;;;;;;4444064;32;20088;-65
2022/10/15 08:22:26;;;;;;;1.05;0.90;;;15.80;99.90;;;;;;4447285;32;20103;-64
2022/10/15 08:24:51;;;;;;;2.40;0.73;;;15.90;99.90;;;;;;4430669;32;20096;-65
2022/10/15 08:27:17;;;;;;;0.68;0.68;;;16.00;99.90;;;;;;4449690;32;20096;-64
2022/10/15 08:29:42;;;;;;;0.73;0.68;;;16.10;99.90;;;;;;4450844;32;20422;-68
2022/10/15 08:32:08;;;;;;;0.50;0.50;;;16.10;99.90;;;;;;4448656;32;20064;-66
2022/10/15 08:34:33;;;;;;;0.50;0.50;;;16.00;99.90;;;;;;4418737;32;85409;-67
2022/10/15 08:36:59;;;;;;;3.42;0.95;;;16.00;99.90;;;;;;4437500;32;20089;-64
2022/10/15 08:39:24;;;;;;;0.85;0.50;;;16.00;99.90;;;;;;4449021;32;20179;-63
2022/10/15 08:41:54;;;;;;;1.08;0.73;;;15.90;99.90;;;;;;4451291;32;20148;-64
2022/10/15 08:44:31;;;;;;;0.40;0.40;;;15.90;99.90;;;;;;4452049;32;20563;-63
2022/10/15 08:47:35;;;;;;;0.50;0.50;;;15.90;99.90;;;;;;4449440;32;20096;-63
2022/10/15 08:50:11;;;;;;;1.15;0.52;;;15.90;99.90;;;;;;4440978;32;20108;-63
2022/10/15 08:52:42;;;;;;;0.60;0.60;;;16.00;99.90;;;;;;4449014;32;20057;-64
2022/10/15 08:55:12;;;;;;;0.60;0.60;;;16.20;99.90;;;;;;4449798;32;20065;-63
2022/10/15 08:57:45;;;;;;;0.53;0.53;;;16.30;99.90;;;;;;4451583;32;20054;-64
2022/10/15 09:00:18;;;;;;;0.45;0.45;;;16.40;99.90;;;;;;4448698;32;20089;-65
2022/10/15 09:02:56;;;;;;;0.45;0.45;;;16.50;99.90;;;;;;4442422;32;20531;-66
2022/10/15 09:05:42;;;;;;;15.80;1.15;;;16.50;99.90;;;;;;4424582;32;21504;-66
2022/10/15 09:08:22;;;;;;;0.70;0.70;;;16.50;99.90;;;;;;4448895;32;20072;-64
2022/10/15 09:10:59;;;;;;;0.30;0.30;;;16.60;99.90;;;;;;4449521;32;20088;-65
2022/10/15 09:13:36;;;;;;;0.50;0.50;;;16.70;99.90;;;;;;4448764;32;20733;-66
2022/10/15 09:16:11;;;;;;;0.65;0.65;;;16.70;99.90;;;;;;4449034;32;20072;-66
2022/10/15 09:18:37;;;;;;;0.60;0.60;;;16.80;99.90;;;;;;4438203;32;20093;-63
2022/10/15 09:21:04;;;;;;;0.55;0.55;;;16.90;99.90;;;;;;4450718;32;20080;-62
2022/10/15 09:23:32;;;;;;;0.73;0.73;;;16.90;99.90;;;;;;4450247;32;20060;-64
2022/10/15 09:26:16;;;;;;;1.20;0.80;;;17.00;99.90;;;;;;4438031;32;20450;-65
2022/10/15 09:28:55;;;;;;;0.68;0.68;;;17.00;99.90;;;;;;4433708;32;20068;-63
2022/10/15 09:31:25;;;;;;;0.40;0.40;;;17.00;99.90;;;;;;4439441;32;20577;-64
2022/10/15 09:34:00;;;;;;;0.60;0.60;;;17.20;99.90;;;;;;4426496;32;20213;-66
2022/10/15 09:36:36;;;;;;;0.60;0.60;;;17.20;99.90;;;;;;4426613;32;20085;-65
2022/10/15 09:39:18;;;;;;;0.60;0.60;;;17.10;99.90;;;;;;4447543;32;20069;-66
2022/10/15 09:41:53;;;;;;;0.60;0.60;;;17.00;99.90;;;;;;4445476;32;20069;-67
2022/10/15 09:44:22;;;;;;;0.52;0.52;;;17.00;99.90;;;;;;4447079;32;20085;-64
2022/10/15 09:46:49;;;;;;;2.62;0.88;;;17.10;99.90;;;;;;4446451;32;20549;-65
2022/10/15 09:49:20;;;;;;;0.43;0.43;;;17.00;99.90;;;;;;4451037;32;20477;-64
2022/10/15 09:52:13;;;;;;;0.57;0.57;;;17.00;99.90;;;;;;4444996;32;20097;-65
2022/10/15 09:54:58;;;;;;;0.50;0.50;;;17.20;99.90;;;;;;4435428;32;20526;-65
2022/10/15 09:57:25;;;;;;;0.50;0.50;;;17.30;99.90;;;;;;4445131;32;20139;-65
2022/10/15 09:59:56;;;;;;;0.70;0.70;;;17.40;99.90;;;;;;4451994;32;20379;-68
2022/10/15 10:02:24;;;;;;;0.73;0.40;;;17.50;99.90;;;;;;4451940;32;20131;-68
2022/10/15 10:04:50;;;;;;;0.50;0.50;;;17.40;99.90;;;;;;4407721;32;20481;-67
2022/10/15 10:07:36;;;;;;;0.50;0.50;;;17.40;99.90;;;;;;4441046;32;20544;-65
2022/10/15 10:10:23;;;;;;;0.47;0.47;;;17.50;99.90;;;;;;4440469;32;20076;-64
2022/10/15 10:12:48;;;;;;;0.60;0.60;;;17.50;99.90;;;;;;4449746;32;20141;-65
2022/10/15 10:15:40;;;;;;;0.68;0.50;;;17.60;99.90;;;;;;4452395;32;20414;-65
2022/10/15 10:18:18;;;;;;;0.70;0.70;;;17.70;99.90;;;;;;4453918;32;20147;-64
2022/10/15 10:20:56;;;;;;;0.50;0.50;;;17.80;99.90;;;;;;4455499;32;20088;-64
2022/10/15 10:23:23;;;;;;;0.90;0.60;;;17.70;99.90;;;;;;4452087;32;20069;-65
2022/10/15 10:25:49;;;;;;;0.45;0.45;;;17.80;99.90;;;;;;4449604;32;20139;-65
2022/10/15 10:28:22;;;;;;;0.52;0.52;;;17.90;99.90;;;;;;4454172;32;20575;-64
2022/10/15 10:31:06;;;;;;;0.60;0.60;;;18.10;99.90;;;;;;4452770;32;20084;-65
2022/10/15 10:33:51;;;;;;;0.47;0.47;;;18.20;99.90;;;;;;4412319;32;20081;-68
2022/10/15 10:36:29;;;;;;;0.40;0.40;;;18.20;99.90;;;;;;4434337;32;20101;-68
2022/10/15 10:39:19;;;;;;;0.43;0.43;;;18.20;99.90;;;;;;4450755;32;21398;-65
2022/10/15 10:41:54;;;;;;;0.68;0.68;;;18.20;99.90;;;;;;4431294;32;20105;-64
2022/10/15 10:44:26;;;;;;;0.68;0.68;;;18.20;99.90;;;;;;4453790;32;20112;-65
2022/10/15 10:47:12;;;;;;;0.60;0.60;;;18.10;99.90;;;;;;4452074;32;20212;-65
2022/10/15 10:49:40;;;;;;;0.40;0.40;;;18.00;99.90;;;;;;4452691;32;20072;-65
2022/10/15 10:52:18;;;;;;;0.75;0.52;;;18.00;99.90;;;;;;4437952;32;20587;-64
2022/10/15 10:54:45;;;;;;;0.50;0.50;;;18.00;99.90;;;;;;4451366;32;20105;-65
2022/10/15 10:57:14;;;;;;;3.40;1.02;;;18.00;99.90;;;;;;4450584;32;20165;-64
2022/10/15 10:59:49;;;;;;;2.67;0.65;;;18.10;99.90;;;;;;4445463;32;20512;-64
2022/10/15 11:02:14;;;;;;;1.08;0.60;;;18.20;99.90;;;;;;4444818;32;20516;-68
2022/10/15 11:04:40;;;;;;;0.45;0.45;;;18.20;99.90;;;;;;4419966;32;20133;-68
2022/10/15 11:07:35;;;;;;;0.65;0.65;;;18.30;99.90;;;;;;4435756;32;20089;-65
2022/10/15 11:10:24;;;;;;;0.50;0.50;;;18.40;99.90;;;;;;4436423;32;20085;-64
2022/10/15 11:13:01;;;;;;;0.60;0.60;;;18.40;99.90;;;;;;4436317;32;20081;-65
2022/10/15 11:15:54;;;;;;;0.85;0.82;;;18.40;99.90;;;;;;4432624;32;20521;-66
2022/10/15 11:18:51;;;;;;;0.50;0.50;;;18.40;99.90;;;;;;4445000;32;20093;-65
2022/10/15 11:21:34;;;;;;;0.68;0.68;;;18.40;99.90;;;;;;4434026;32;20090;-65
2022/10/15 11:24:29;;;;;;;0.32;0.32;;;18.50;99.90;;;;;;4443569;32;20061;-66
2022/10/15 11:27:10;;;;;;;0.40;0.40;;;18.60;99.90;;;;;;4430879;32;20081;-65
2022/10/15 11:30:00;;;;;;;0.50;0.50;;;18.90;99.90;;;;;;4446734;32;20583;-65
2022/10/15 11:32:52;;;;;;;0.40;0.40;;;19.00;99.90;;;;;;4417980;32;20088;-68
2022/10/15 11:35:31;;;;;;;0.60;0.60;;;19.30;99.90;;;;;;4408976;32;20348;-67
2022/10/15 11:38:19;;;;;;;3.75;0.65;;;19.70;99.90;;;;;;4441515;32;20073;-65
2022/10/15 11:41:11;;;;;;;0.60;0.60;;;20.00;99.90;;;;;;4435662;32;20065;-66
2022/10/15 11:44:02;;;;;;;0.30;0.30;;;20.40;99.90;;;;;;4431402;32;20081;-64
2022/10/15 11:46:41;;;;;;;0.45;0.40;;;20.80;99.90;;;;;;4432742;32;20068;-67
2022/10/15 11:49:22;;;;;;;0.37;0.37;;;21.10;99.90;;;;;;4444051;32;20057;-65
2022/10/15 11:52:15;;;;;;;0.32;0.32;;;21.50;99.90;;;;;;4430652;32;20119;-65
2022/10/15 11:54:46;;;;;;;0.40;0.40;;;21.70;99.90;;;;;;4432757;32;20103;-65
2022/10/15 11:57:17;;;;;;;0.30;0.30;;;21.20;99.90;;;;;;4444593;32;20088;-65
2022/10/15 11:59:50;;;;;;;1.85;0.90;;;20.60;99.90;;;;;;4441527;32;20104;-65
2022/10/15 12:02:25;;;;;;;0.43;0.43;;;20.30;99.90;;;;;;4446307;32;20065;-68
2022/10/15 12:04:55;;;;;;;0.30;0.30;;;19.90;99.90;;;;;;4418311;32;20574;-66
2022/10/15 12:07:29;;;;;;;0.50;0.50;;;19.70;99.90;;;;;;4438041;32;20089;-65
2022/10/15 12:10:08;;;;;;;0.30;0.30;;;19.60;99.90;;;;;;4444345;32;20093;-65
2022/10/15 12:13:00;;;;;;;0.30;0.30;;;19.40;99.90;;;;;;4442105;32;20166;-66
2022/10/15 12:15:35;;;;;;;0.40;0.40;;;19.50;99.90;;;;;;4433405;32;20569;-65
2022/10/15 12:18:17;;;;;;;0.40;0.40;;;19.50;99.90;;;;;;4444612;32;20065;-67
2022/10/15 12:20:44;;;;;;;0.52;0.52;;;19.50;99.90;;;;;;4448264;32;20064;-65
2022/10/15 12:23:38;;;;;;;0.32;0.32;;;19.40;99.90;;;;;;4444680;32;20126;-64
2022/10/15 12:26:25;;;;;;;0.50;0.50;;;19.30;99.90;;;;;;4433983;32;20056;-65
2022/10/15 12:28:53;;;;;;;0.45;0.45;;;19.20;99.90;;;;;;4431382;32;20100;-65
2022/10/15 12:31:20;;;;;;;0.40;0.40;;;19.10;99.90;;;;;;4443677;32;20136;-65
2022/10/15 12:33:52;;;;;;;0.40;0.40;;;19.10;99.90;;;;;;4425570;32;21096;-67
2022/10/15 12:36:21;;;;;;;0.30;0.30;;;19.10;99.90;;;;;;4427097;32;21548;-66
2022/10/15 12:38:59;;;;;;;0.50;0.50;;;19.10;99.90;;;;;;4442498;32;20069;-66
2022/10/15 12:41:43;;;;;;;0.50;0.50;;;19.10;99.90;;;;;;4445088;32;20077;-65
2022/10/15 12:44:30;;;;;;;0.65;0.50;;;19.30;99.90;;;;;;4443061;32;20496;-65
2022/10/15 12:46:57;;;;;;;2.30;0.55;;;19.20;99.90;;;;;;4433617;32;20123;-67
2022/10/15 12:49:30;;;;;;;1.67;0.65;;;19.20;99.90;;;;;;4443901;32;20081;-66
2022/10/15 12:51:57;;;;;;;0.43;0.43;;;19.20;99.90;;;;;;4443807;32;20549;-66
2022/10/15 12:54:34;;;;;;;0.47;0.47;;;19.00;99.90;;;;;;4446129;32;20386;-65
2022/10/15 12:57:00;;;;;;;0.52;0.52;;;19.10;99.90;;;;;;4443140;32;20528;-66
2022/10/15 12:59:49;;;;;;;0.50;0.50;;;19.00;99.90;;;;;;4445003;32;20230;-66
2022/10/15 13:02:37;;;;;;;0.52;0.52;;;18.90;99.90;;;;;;4430544;32;20068;-68
2022/10/15 13:05:06;;;;;;;0.30;0.30;;;18.80;99.90;;;;;;4410349;32;20076;-66
2022/10/15 13:07:36;;;;;;;0.50;0.50;;;18.70;99.90;;;;;;4435548;32;20142;-66